sensor_id;sensor_type;location;lat;lon;timestamp;P1;durP1;ratioP1;P2;durP2;ratioP2
7519;SDS011;3801;48.876;10.184;2024-03-22T00:03:43;7.40;;;4.10;;
7519;SDS011;3801;48.876;10.184;2024-03-22T00:08:48;7.97;;;4.17;;
7519;SDS011;3801;48.876;10.184;2024-03-22T00:13:50;6.07;;;4.13;;
7519;SDS011;3801;48.876;10.184;2024-03-22T00:18:53;9.33;;;4.63;;
7519;SDS011;3801;48.876;10.184;2024-03-22T00:23:57;6.83;;;4.27;;
7519;SDS011;3801;48.876;10.184;2024-03-22T00:28:59;8.33;;;4.33;;
7519;SDS011;3801;48.876;10.184;2024-03-22T00:34:02;5.80;;;4.00;;
7519;SDS011;3801;48.876;10.184;2024-03-22T00:39:07;9.47;;;4.93;;
7519;SDS011;3801;48.876;10.184;2024-03-22T00:44:09;6.40;;;4.10;;
7519;SDS011;3801;48.876;10.184;2024-03-22T00:49:12;6.77;;;4.07;;
7519;SDS011;3801;48.876;10.184;2024-03-22T00:54:17;7.53;;;3.80;;
7519;SDS011;3801;48.876;10.184;2024-03-22T00:59:20;7.57;;;3.83;;
7519;SDS011;3801;48.876;10.184;2024-03-22T01:04:23;5.10;;;3.80;;
7519;SDS011;3801;48.876;10.184;2024-03-22T01:09:27;5.33;;;3.70;;
7519;SDS011;3801;48.876;10.184;2024-03-22T01:14:31;6.50;;;3.47;;
7519;SDS011;3801;48.876;10.184;2024-03-22T01:19:34;6.80;;;3.90;;
7519;SDS011;3801;48.876;10.184;2024-03-22T01:24:38;6.10;;;3.40;;
7519;SDS011;3801;48.876;10.184;2024-03-22T01:29:40;6.07;;;3.60;;
7519;SDS011;3801;48.876;10.184;2024-03-22T01:34:43;7.00;;;3.60;;
7519;SDS011;3801;48.876;10.184;2024-03-22T01:39:48;6.67;;;3.73;;
7519;SDS011;3801;48.876;10.184;2024-03-22T01:44:50;5.07;;;3.37;;
7519;SDS011;3801;48.876;10.184;2024-03-22T01:49:53;7.67;;;3.73;;
7519;SDS011;3801;48.876;10.184;2024-03-22T01:54:59;8.70;;;4.00;;
7519;SDS011;3801;48.876;10.184;2024-03-22T02:00:02;6.90;;;4.17;;
7519;SDS011;3801;48.876;10.184;2024-03-22T02:05:15;7.87;;;4.40;;
7519;SDS011;3801;48.876;10.184;2024-03-22T02:10:22;7.47;;;4.47;;
7519;SDS011;3801;48.876;10.184;2024-03-22T02:15:25;7.87;;;4.80;;
7519;SDS011;3801;48.876;10.184;2024-03-22T02:20:27;8.03;;;5.07;;
7519;SDS011;3801;48.876;10.184;2024-03-22T02:25:31;8.63;;;4.80;;
7519;SDS011;3801;48.876;10.184;2024-03-22T02:30:33;8.30;;;5.17;;
7519;SDS011;3801;48.876;10.184;2024-03-22T02:35:36;7.83;;;4.63;;
7519;SDS011;3801;48.876;10.184;2024-03-22T02:40:40;7.97;;;3.87;;
7519;SDS011;3801;48.876;10.184;2024-03-22T02:45:44;4.97;;;3.50;;
7519;SDS011;3801;48.876;10.184;2024-03-22T02:50:46;5.93;;;3.40;;
7519;SDS011;3801;48.876;10.184;2024-03-22T02:55:51;6.83;;;4.30;;
7519;SDS011;3801;48.876;10.184;2024-03-22T03:00:54;5.07;;;3.63;;
7519;SDS011;3801;48.876;10.184;2024-03-22T03:05:57;5.13;;;3.97;;
7519;SDS011;3801;48.876;10.184;2024-03-22T03:11:02;8.90;;;5.40;;
7519;SDS011;3801;48.876;10.184;2024-03-22T03:16:05;11.23;;;7.10;;
7519;SDS011;3801;48.876;10.184;2024-03-22T03:21:08;13.27;;;7.73;;
7519;SDS011;3801;48.876;10.184;2024-03-22T03:26:12;8.10;;;5.47;;
7519;SDS011;3801;48.876;10.184;2024-03-22T03:31:15;13.23;;;8.33;;
7519;SDS011;3801;48.876;10.184;2024-03-22T03:36:18;18.27;;;11.03;;
7519;SDS011;3801;48.876;10.184;2024-03-22T03:41:24;18.03;;;11.27;;
7519;SDS011;3801;48.876;10.184;2024-03-22T03:46:26;25.60;;;15.10;;
7519;SDS011;3801;48.876;10.184;2024-03-22T03:51:29;26.53;;;15.27;;
7519;SDS011;3801;48.876;10.184;2024-03-22T03:56:33;9.43;;;6.63;;
7519;SDS011;3801;48.876;10.184;2024-03-22T04:01:35;9.40;;;6.00;;
7519;SDS011;3801;48.876;10.184;2024-03-22T04:06:38;12.13;;;6.50;;
7519;SDS011;3801;48.876;10.184;2024-03-22T04:11:42;13.90;;;8.47;;
7519;SDS011;3801;48.876;10.184;2024-03-22T04:16:46;12.33;;;8.23;;
7519;SDS011;3801;48.876;10.184;2024-03-22T04:21:49;19.43;;;10.63;;
7519;SDS011;3801;48.876;10.184;2024-03-22T04:26:53;15.33;;;9.87;;
7519;SDS011;3801;48.876;10.184;2024-03-22T04:31:55;15.00;;;8.60;;
7519;SDS011;3801;48.876;10.184;2024-03-22T04:36:58;14.77;;;9.10;;
7519;SDS011;3801;48.876;10.184;2024-03-22T04:42:02;12.87;;;8.37;;
7519;SDS011;3801;48.876;10.184;2024-03-22T04:47:05;13.23;;;7.80;;
7519;SDS011;3801;48.876;10.184;2024-03-22T04:52:08;12.93;;;8.70;;
7519;SDS011;3801;48.876;10.184;2024-03-22T04:57:12;9.80;;;6.90;;
7519;SDS011;3801;48.876;10.184;2024-03-22T05:02:14;10.63;;;6.80;;
7519;SDS011;3801;48.876;10.184;2024-03-22T05:07:19;15.77;;;9.20;;
7519;SDS011;3801;48.876;10.184;2024-03-22T05:12:23;11.33;;;7.50;;
7519;SDS011;3801;48.876;10.184;2024-03-22T05:17:26;12.03;;;8.00;;
7519;SDS011;3801;48.876;10.184;2024-03-22T05:22:30;11.93;;;8.20;;
7519;SDS011;3801;48.876;10.184;2024-03-22T05:27:35;20.77;;;11.43;;
7519;SDS011;3801;48.876;10.184;2024-03-22T05:32:37;24.20;;;13.27;;
7519;SDS011;3801;48.876;10.184;2024-03-22T05:37:40;25.63;;;13.03;;
7519;SDS011;3801;48.876;10.184;2024-03-22T05:42:44;23.77;;;13.93;;
7519;SDS011;3801;48.876;10.184;2024-03-22T05:47:50;22.77;;;13.17;;
7519;SDS011;3801;48.876;10.184;2024-03-22T05:52:52;16.60;;;11.53;;
7519;SDS011;3801;48.876;10.184;2024-03-22T05:57:57;16.90;;;10.50;;
7519;SDS011;3801;48.876;10.184;2024-03-22T06:02:59;14.27;;;9.73;;
7519;SDS011;3801;48.876;10.184;2024-03-22T06:08:01;14.07;;;9.80;;
7519;SDS011;3801;48.876;10.184;2024-03-22T06:13:05;12.67;;;9.23;;
7519;SDS011;3801;48.876;10.184;2024-03-22T06:18:08;17.90;;;7.80;;
7519;SDS011;3801;48.876;10.184;2024-03-22T06:23:11;14.07;;;8.47;;
7519;SDS011;3801;48.876;10.184;2024-03-22T06:28:15;13.43;;;8.57;;
7519;SDS011;3801;48.876;10.184;2024-03-22T06:33:17;10.83;;;6.83;;
7519;SDS011;3801;48.876;10.184;2024-03-22T06:38:20;11.63;;;7.53;;
7519;SDS011;3801;48.876;10.184;2024-03-22T06:43:24;9.77;;;8.37;;
7519;SDS011;3801;48.876;10.184;2024-03-22T06:48:26;12.60;;;7.63;;
7519;SDS011;3801;48.876;10.184;2024-03-22T06:53:28;9.17;;;6.60;;
7519;SDS011;3801;48.876;10.184;2024-03-22T06:58:32;12.17;;;6.87;;
7519;SDS011;3801;48.876;10.184;2024-03-22T07:03:34;9.60;;;6.77;;
7519;SDS011;3801;48.876;10.184;2024-03-22T07:08:37;10.00;;;6.43;;
7519;SDS011;3801;48.876;10.184;2024-03-22T07:13:40;8.00;;;5.80;;
7519;SDS011;3801;48.876;10.184;2024-03-22T07:18:43;8.87;;;5.53;;
7519;SDS011;3801;48.876;10.184;2024-03-22T07:23:45;8.73;;;5.37;;
7519;SDS011;3801;48.876;10.184;2024-03-22T07:28:49;6.90;;;4.17;;
7519;SDS011;3801;48.876;10.184;2024-03-22T07:33:52;6.67;;;5.30;;
7519;SDS011;3801;48.876;10.184;2024-03-22T07:38:56;8.53;;;6.30;;
7519;SDS011;3801;48.876;10.184;2024-03-22T07:44:00;10.30;;;5.97;;
7519;SDS011;3801;48.876;10.184;2024-03-22T07:49:03;9.37;;;6.13;;
7519;SDS011;3801;48.876;10.184;2024-03-22T07:54:06;7.97;;;6.27;;
7519;SDS011;3801;48.876;10.184;2024-03-22T07:59:10;12.47;;;7.80;;
7519;SDS011;3801;48.876;10.184;2024-03-22T08:04:13;9.03;;;6.90;;
7519;SDS011;3801;48.876;10.184;2024-03-22T08:09:15;10.07;;;7.30;;
7519;SDS011;3801;48.876;10.184;2024-03-22T08:14:21;10.37;;;6.93;;
7519;SDS011;3801;48.876;10.184;2024-03-22T08:19:24;12.33;;;6.40;;
7519;SDS011;3801;48.876;10.184;2024-03-22T08:24:26;8.43;;;6.63;;
7519;SDS011;3801;48.876;10.184;2024-03-22T08:29:31;9.60;;;6.93;;
7519;SDS011;3801;48.876;10.184;2024-03-22T08:34:33;9.87;;;7.00;;
7519;SDS011;3801;48.876;10.184;2024-03-22T08:39:36;12.97;;;7.67;;
7519;SDS011;3801;48.876;10.184;2024-03-22T08:44:41;10.97;;;7.03;;
7519;SDS011;3801;48.876;10.184;2024-03-22T08:49:44;11.20;;;7.87;;
7519;SDS011;3801;48.876;10.184;2024-03-22T08:54:47;9.90;;;7.07;;
7519;SDS011;3801;48.876;10.184;2024-03-22T08:59:50;11.33;;;7.60;;
7519;SDS011;3801;48.876;10.184;2024-03-22T09:04:53;8.83;;;6.70;;
7519;SDS011;3801;48.876;10.184;2024-03-22T09:09:55;7.53;;;6.10;;
7519;SDS011;3801;48.876;10.184;2024-03-22T09:14:59;9.10;;;5.97;;
7519;SDS011;3801;48.876;10.184;2024-03-22T09:20:03;7.83;;;6.97;;
7519;SDS011;3801;48.876;10.184;2024-03-22T09:25:07;9.60;;;6.40;;
7519;SDS011;3801;48.876;10.184;2024-03-22T09:30:11;8.70;;;6.30;;
7519;SDS011;3801;48.876;10.184;2024-03-22T09:35:14;7.90;;;5.60;;
7519;SDS011;3801;48.876;10.184;2024-03-22T09:40:17;7.53;;;6.30;;
7519;SDS011;3801;48.876;10.184;2024-03-22T09:45:21;7.93;;;6.47;;
7519;SDS011;3801;48.876;10.184;2024-03-22T09:50:24;9.80;;;6.40;;
7519;SDS011;3801;48.876;10.184;2024-03-22T09:55:27;6.97;;;6.07;;
7519;SDS011;3801;48.876;10.184;2024-03-22T10:00:32;7.63;;;6.57;;
7519;SDS011;3801;48.876;10.184;2024-03-22T10:05:35;10.10;;;6.60;;
7519;SDS011;3801;48.876;10.184;2024-03-22T10:10:37;7.77;;;6.13;;
7519;SDS011;3801;48.876;10.184;2024-03-22T10:15:41;7.43;;;6.33;;
7519;SDS011;3801;48.876;10.184;2024-03-22T10:20:44;8.77;;;6.30;;
7519;SDS011;3801;48.876;10.184;2024-03-22T10:25:48;8.27;;;5.83;;
7519;SDS011;3801;48.876;10.184;2024-03-22T10:30:52;7.97;;;6.50;;
7519;SDS011;3801;48.876;10.184;2024-03-22T10:35:54;8.00;;;5.67;;
7519;SDS011;3801;48.876;10.184;2024-03-22T10:40:57;7.07;;;5.70;;
7519;SDS011;3801;48.876;10.184;2024-03-22T10:46:02;5.83;;;5.20;;
7519;SDS011;3801;48.876;10.184;2024-03-22T10:51:06;6.20;;;4.50;;
7519;SDS011;3801;48.876;10.184;2024-03-22T10:56:08;5.80;;;5.07;;
7519;SDS011;3801;48.876;10.184;2024-03-22T11:01:22;6.27;;;4.33;;
7519;SDS011;3801;48.876;10.184;2024-03-22T11:06:26;6.03;;;4.60;;
7519;SDS011;3801;48.876;10.184;2024-03-22T11:11:29;5.90;;;4.63;;
7519;SDS011;3801;48.876;10.184;2024-03-22T11:16:33;6.20;;;5.03;;
7519;SDS011;3801;48.876;10.184;2024-03-22T11:21:35;5.33;;;4.10;;
7519;SDS011;3801;48.876;10.184;2024-03-22T11:26:38;7.10;;;5.10;;
7519;SDS011;3801;48.876;10.184;2024-03-22T11:31:41;5.90;;;5.20;;
7519;SDS011;3801;48.876;10.184;2024-03-22T11:36:44;6.43;;;5.03;;
7519;SDS011;3801;48.876;10.184;2024-03-22T11:41:46;9.30;;;5.97;;
7519;SDS011;3801;48.876;10.184;2024-03-22T11:46:52;5.97;;;5.10;;
7519;SDS011;3801;48.876;10.184;2024-03-22T11:51:55;7.17;;;5.90;;
7519;SDS011;3801;48.876;10.184;2024-03-22T11:56:57;5.43;;;4.93;;
7519;SDS011;3801;48.876;10.184;2024-03-22T12:02:02;6.47;;;4.80;;
7519;SDS011;3801;48.876;10.184;2024-03-22T12:07:08;7.33;;;5.40;;
7519;SDS011;3801;48.876;10.184;2024-03-22T12:12:11;10.48;;;5.40;;
7519;SDS011;3801;48.876;10.184;2024-03-22T12:17:15;6.27;;;4.97;;
7519;SDS011;3801;48.876;10.184;2024-03-22T12:22:17;7.80;;;5.27;;
7519;SDS011;3801;48.876;10.184;2024-03-22T12:27:20;8.40;;;5.90;;
7519;SDS011;3801;48.876;10.184;2024-03-22T12:32:24;6.43;;;5.70;;
7519;SDS011;3801;48.876;10.184;2024-03-22T12:37:27;5.53;;;4.93;;
7519;SDS011;3801;48.876;10.184;2024-03-22T12:42:30;7.37;;;5.90;;
7519;SDS011;3801;48.876;10.184;2024-03-22T12:47:34;7.57;;;5.13;;
7519;SDS011;3801;48.876;10.184;2024-03-22T12:52:37;6.13;;;5.07;;
7519;SDS011;3801;48.876;10.184;2024-03-22T12:57:40;7.50;;;5.13;;
7519;SDS011;3801;48.876;10.184;2024-03-22T13:02:46;8.10;;;4.80;;
7519;SDS011;3801;48.876;10.184;2024-03-22T13:07:48;7.07;;;4.73;;
7519;SDS011;3801;48.876;10.184;2024-03-22T13:12:53;4.83;;;4.20;;
7519;SDS011;3801;48.876;10.184;2024-03-22T13:17:57;5.43;;;4.43;;
7519;SDS011;3801;48.876;10.184;2024-03-22T13:23:00;5.73;;;3.77;;
7519;SDS011;3801;48.876;10.184;2024-03-22T13:28:04;7.03;;;3.70;;
7519;SDS011;3801;48.876;10.184;2024-03-22T13:33:08;5.70;;;3.70;;
7519;SDS011;3801;48.876;10.184;2024-03-22T13:38:11;4.23;;;3.40;;
7519;SDS011;3801;48.876;10.184;2024-03-22T13:43:15;4.37;;;3.93;;
7519;SDS011;3801;48.876;10.184;2024-03-22T13:48:19;6.00;;;3.70;;
7519;SDS011;3801;48.876;10.184;2024-03-22T13:53:26;5.27;;;3.80;;
7519;SDS011;3801;48.876;10.184;2024-03-22T13:58:29;5.27;;;3.57;;
7519;SDS011;3801;48.876;10.184;2024-03-22T14:03:34;4.37;;;3.53;;
7519;SDS011;3801;48.876;10.184;2024-03-22T14:08:37;5.97;;;3.93;;
7519;SDS011;3801;48.876;10.184;2024-03-22T14:13:39;5.00;;;4.30;;
7519;SDS011;3801;48.876;10.184;2024-03-22T14:18:43;7.20;;;4.50;;
7519;SDS011;3801;48.876;10.184;2024-03-22T14:23:46;6.60;;;4.50;;
7519;SDS011;3801;48.876;10.184;2024-03-22T14:28:48;6.47;;;4.43;;
7519;SDS011;3801;48.876;10.184;2024-03-22T14:33:54;5.70;;;4.60;;
7519;SDS011;3801;48.876;10.184;2024-03-22T14:38:58;5.07;;;3.77;;
7519;SDS011;3801;48.876;10.184;2024-03-22T14:44:04;7.67;;;4.67;;
7519;SDS011;3801;48.876;10.184;2024-03-22T14:49:08;6.93;;;4.00;;
7519;SDS011;3801;48.876;10.184;2024-03-22T14:54:10;6.67;;;4.47;;
7519;SDS011;3801;48.876;10.184;2024-03-22T14:59:13;6.30;;;4.17;;
7519;SDS011;3801;48.876;10.184;2024-03-22T15:04:18;7.10;;;4.40;;
7519;SDS011;3801;48.876;10.184;2024-03-22T15:09:20;6.53;;;4.40;;
7519;SDS011;3801;48.876;10.184;2024-03-22T15:14:24;6.83;;;5.00;;
7519;SDS011;3801;48.876;10.184;2024-03-22T15:19:30;7.43;;;4.57;;
7519;SDS011;3801;48.876;10.184;2024-03-22T15:24:32;6.33;;;4.37;;
7519;SDS011;3801;48.876;10.184;2024-03-22T15:29:37;6.67;;;3.90;;
7519;SDS011;3801;48.876;10.184;2024-03-22T15:34:41;8.10;;;4.00;;
7519;SDS011;3801;48.876;10.184;2024-03-22T15:39:43;6.83;;;3.77;;
7519;SDS011;3801;48.876;10.184;2024-03-22T15:44:46;5.77;;;3.77;;
7519;SDS011;3801;48.876;10.184;2024-03-22T15:49:49;4.93;;;3.70;;
7519;SDS011;3801;48.876;10.184;2024-03-22T15:54:52;5.10;;;4.07;;
7519;SDS011;3801;48.876;10.184;2024-03-22T15:59:55;6.27;;;4.27;;
7519;SDS011;3801;48.876;10.184;2024-03-22T16:05:00;7.03;;;4.33;;
7519;SDS011;3801;48.876;10.184;2024-03-22T16:10:03;6.77;;;4.30;;
7519;SDS011;3801;48.876;10.184;2024-03-22T16:15:07;6.20;;;4.40;;
7519;SDS011;3801;48.876;10.184;2024-03-22T16:20:11;7.33;;;4.17;;
7519;SDS011;3801;48.876;10.184;2024-03-22T16:25:14;11.53;;;7.50;;
7519;SDS011;3801;48.876;10.184;2024-03-22T16:30:17;14.90;;;6.77;;
7519;SDS011;3801;48.876;10.184;2024-03-22T16:35:21;5.90;;;4.43;;
7519;SDS011;3801;48.876;10.184;2024-03-22T16:40:23;5.70;;;4.57;;
7519;SDS011;3801;48.876;10.184;2024-03-22T16:45:26;8.73;;;4.70;;
7519;SDS011;3801;48.876;10.184;2024-03-22T16:50:31;6.13;;;4.50;;
7519;SDS011;3801;48.876;10.184;2024-03-22T16:55:34;8.80;;;6.97;;
7519;SDS011;3801;48.876;10.184;2024-03-22T17:00:36;5.23;;;3.97;;
7519;SDS011;3801;48.876;10.184;2024-03-22T17:05:40;10.50;;;4.60;;
7519;SDS011;3801;48.876;10.184;2024-03-22T17:10:43;8.00;;;4.93;;
7519;SDS011;3801;48.876;10.184;2024-03-22T17:15:46;9.23;;;4.87;;
7519;SDS011;3801;48.876;10.184;2024-03-22T17:20:50;9.03;;;6.10;;
7519;SDS011;3801;48.876;10.184;2024-03-22T17:25:57;6.93;;;5.53;;
7519;SDS011;3801;48.876;10.184;2024-03-22T17:31:01;11.03;;;4.90;;
7519;SDS011;3801;48.876;10.184;2024-03-22T17:36:05;6.80;;;4.70;;
7519;SDS011;3801;48.876;10.184;2024-03-22T17:41:08;5.70;;;4.53;;
7519;SDS011;3801;48.876;10.184;2024-03-22T17:46:11;7.40;;;5.27;;
7519;SDS011;3801;48.876;10.184;2024-03-22T17:51:15;7.53;;;5.83;;
7519;SDS011;3801;48.876;10.184;2024-03-22T17:56:19;8.33;;;6.77;;
7519;SDS011;3801;48.876;10.184;2024-03-22T18:01:23;9.20;;;6.00;;
7519;SDS011;3801;48.876;10.184;2024-03-22T18:06:27;10.17;;;5.83;;
7519;SDS011;3801;48.876;10.184;2024-03-22T18:11:31;7.03;;;5.57;;
7519;SDS011;3801;48.876;10.184;2024-03-22T18:16:33;6.93;;;4.33;;
7519;SDS011;3801;48.876;10.184;2024-03-22T18:21:38;5.43;;;4.53;;
7519;SDS011;3801;48.876;10.184;2024-03-22T18:26:42;10.57;;;7.10;;
7519;SDS011;3801;48.876;10.184;2024-03-22T18:31:45;8.60;;;5.10;;
7519;SDS011;3801;48.876;10.184;2024-03-22T18:36:49;18.43;;;13.33;;
7519;SDS011;3801;48.876;10.184;2024-03-22T18:41:52;8.50;;;7.17;;
7519;SDS011;3801;48.876;10.184;2024-03-22T18:46:55;8.67;;;5.60;;
7519;SDS011;3801;48.876;10.184;2024-03-22T18:51:59;7.27;;;4.70;;
7519;SDS011;3801;48.876;10.184;2024-03-22T18:57:02;7.03;;;4.63;;
7519;SDS011;3801;48.876;10.184;2024-03-22T19:02:06;5.73;;;4.10;;
7519;SDS011;3801;48.876;10.184;2024-03-22T19:07:10;5.93;;;4.93;;
7519;SDS011;3801;48.876;10.184;2024-03-22T19:12:14;8.27;;;6.10;;
7519;SDS011;3801;48.876;10.184;2024-03-22T19:17:17;5.40;;;4.20;;
7519;SDS011;3801;48.876;10.184;2024-03-22T19:22:21;5.80;;;4.17;;
7519;SDS011;3801;48.876;10.184;2024-03-22T19:27:23;7.40;;;4.60;;
7519;SDS011;3801;48.876;10.184;2024-03-22T19:32:26;11.17;;;7.53;;
7519;SDS011;3801;48.876;10.184;2024-03-22T19:37:30;8.73;;;6.80;;
7519;SDS011;3801;48.876;10.184;2024-03-22T19:42:33;4.83;;;2.50;;
7519;SDS011;3801;48.876;10.184;2024-03-22T19:47:36;2.53;;;2.30;;
7519;SDS011;3801;48.876;10.184;2024-03-22T19:52:39;2.87;;;2.20;;
7519;SDS011;3801;48.876;10.184;2024-03-22T19:57:42;3.43;;;2.23;;
7519;SDS011;3801;48.876;10.184;2024-03-22T20:02:45;3.67;;;1.80;;
7519;SDS011;3801;48.876;10.184;2024-03-22T20:07:49;2.63;;;2.00;;
7519;SDS011;3801;48.876;10.184;2024-03-22T20:12:52;7.07;;;2.67;;
7519;SDS011;3801;48.876;10.184;2024-03-22T20:17:55;2.90;;;2.37;;
7519;SDS011;3801;48.876;10.184;2024-03-22T20:23:00;2.37;;;2.10;;
7519;SDS011;3801;48.876;10.184;2024-03-22T20:28:05;3.87;;;2.00;;
7519;SDS011;3801;48.876;10.184;2024-03-22T20:33:09;2.60;;;2.10;;
